createdAt,value
2023-02-11T00:02:31.302Z,-2.51
2023-02-11T00:05:41.727Z,-2.57
2023-02-11T00:09:09.891Z,-2.66
2023-02-11T00:12:37.790Z,-2.76
2023-02-11T00:16:06.168Z,-2.81
2023-02-11T00:19:33.967Z,-2.79
2023-02-11T00:22:49.746Z,-2.80
2023-02-11T00:26:18.036Z,-2.89
2023-02-11T00:29:45.784Z,-3.00
2023-02-11T00:33:13.865Z,-3.09
2023-02-11T00:36:41.529Z,-3.17
2023-02-11T00:39:31.337Z,-3.21
2023-02-11T00:42:59.254Z,-3.22
2023-02-11T00:46:27.196Z,-3.17
2023-02-11T00:49:54.877Z,-3.17
2023-02-11T00:53:22.936Z,-3.21
2023-02-11T00:56:50.709Z,-3.15
2023-02-11T01:00:00.630Z,-3.01
2023-02-11T01:03:28.516Z,-3.04
2023-02-11T01:06:56.724Z,-3.06
2023-02-11T01:10:24.554Z,-3.11
2023-02-11T01:13:52.533Z,-3.13
2023-02-11T01:17:20.354Z,-3.15
2023-02-11T01:20:48.091Z,-3.06
2023-02-11T01:24:15.852Z,-3.06
2023-02-11T01:27:24.454Z,-3.06
2023-02-11T01:30:52.619Z,-3.07
2023-02-11T01:34:20.282Z,-3.05
2023-02-11T01:37:48.237Z,-3.02
2023-02-11T01:40:36.477Z,-3.06
2023-02-11T01:43:44.992Z,-3.09
2023-02-11T01:47:14.265Z,-3.13
2023-02-11T01:50:22.660Z,-3.14
2023-02-11T01:53:50.305Z,-3.18
2023-02-11T01:57:18.345Z,-3.22
2023-02-11T02:00:46.172Z,-3.28
2023-02-11T02:04:13.933Z,-3.37
2023-02-11T02:07:41.610Z,-3.40
2023-02-11T02:11:09.838Z,-3.43
2023-02-11T02:14:37.604Z,-3.44
2023-02-11T02:18:05.476Z,-3.50
2023-02-11T02:21:33.655Z,-3.60
2023-02-11T02:25:01.733Z,-3.69
2023-02-11T02:28:29.509Z,-3.73
2023-02-11T02:31:57.375Z,-3.75
2023-02-11T02:35:25.173Z,-3.74
2023-02-11T02:38:33.973Z,-3.78
2023-02-11T02:42:02.469Z,-3.80
2023-02-11T02:45:30.239Z,-3.83
2023-02-11T02:48:58.389Z,-3.82
2023-02-11T02:52:26.155Z,-3.82
2023-02-11T02:55:35.799Z,-3.86
2023-02-11T02:58:46.983Z,-3.89
2023-02-11T03:02:12.012Z,-3.94
2023-02-11T03:05:40.051Z,-3.96
2023-02-11T03:08:29.530Z,-4.00
2023-02-11T03:11:57.222Z,-4.01
2023-02-11T03:15:05.357Z,-3.99
2023-02-11T03:18:33.478Z,-4.02
2023-02-11T03:22:01.267Z,-4.06
2023-02-11T03:25:29.182Z,-4.18
2023-02-11T03:28:56.975Z,-4.32
2023-02-11T03:32:25.002Z,-4.48
2023-02-11T03:35:52.802Z,-4.59
2023-02-11T03:39:20.897Z,-4.61
2023-02-11T03:42:48.631Z,-4.68
2023-02-11T03:46:16.763Z,-4.77
2023-02-11T03:49:44.898Z,-4.84
2023-02-11T03:53:13.069Z,-4.84
2023-02-11T03:56:41.174Z,-4.87
2023-02-11T04:00:09.048Z,-4.98
2023-02-11T04:03:17.990Z,-5.03
2023-02-11T04:06:45.855Z,-5.04
2023-02-11T04:10:13.526Z,-5.04
2023-02-11T04:13:41.307Z,-5.24
2023-02-11T04:17:09.735Z,-5.32
2023-02-11T04:20:37.549Z,-5.23
2023-02-11T04:24:05.364Z,-5.19
2023-02-11T04:27:33.196Z,-5.16
2023-02-11T04:31:00.861Z,-5.15
2023-02-11T04:34:28.542Z,-5.13
2023-02-11T04:37:56.512Z,-5.07
2023-02-11T04:41:24.393Z,-5.06
2023-02-11T04:44:52.152Z,-5.10
2023-02-11T04:48:19.920Z,-5.15
2023-02-11T04:51:28.368Z,-5.15
2023-02-11T04:54:56.288Z,-5.22
2023-02-11T04:58:24.115Z,-5.28
2023-02-11T05:01:52.602Z,-5.40
2023-02-11T05:05:20.443Z,-5.42
2023-02-11T05:08:48.237Z,-5.41
2023-02-11T05:12:16.073Z,-5.43
2023-02-11T05:15:43.707Z,-5.43
2023-02-11T05:19:11.536Z,-5.39
2023-02-11T05:22:39.206Z,-5.38
2023-02-11T05:26:07.090Z,-5.38
2023-02-11T05:29:35.074Z,-5.46
2023-02-11T05:33:02.936Z,-5.43
2023-02-11T05:36:33.324Z,-5.45
2023-02-11T05:39:58.679Z,-5.45
2023-02-11T05:43:26.280Z,-5.48
2023-02-11T05:46:54.295Z,-5.52
2023-02-11T05:50:22.809Z,-5.62
2023-02-11T05:53:50.987Z,-5.62
2023-02-11T05:57:18.768Z,-5.62
2023-02-11T06:00:46.752Z,-5.66
2023-02-11T06:04:14.613Z,-5.67
2023-02-11T06:07:42.493Z,-5.71
2023-02-11T06:11:11.350Z,-5.75
2023-02-11T06:14:39.260Z,-5.76
2023-02-11T06:18:07.034Z,-5.74
2023-02-11T06:21:43.287Z,-5.72
2023-02-11T06:25:02.912Z,-5.62
2023-02-11T06:28:11.846Z,-5.55
2023-02-11T06:31:40.053Z,-5.56
2023-02-11T06:35:09.991Z,-5.52
2023-02-11T06:38:35.374Z,-5.44
2023-02-11T06:42:03.208Z,-5.35
2023-02-11T06:45:31.183Z,-5.29
2023-02-11T06:48:59.244Z,-5.23
2023-02-11T06:52:27.663Z,-5.20
2023-02-11T06:55:35.552Z,-5.14
2023-02-11T06:59:03.324Z,-5.10
2023-02-11T07:02:31.308Z,-5.05
2023-02-11T07:05:59.049Z,-4.96
2023-02-11T07:09:26.741Z,-4.84
2023-02-11T07:12:56.481Z,-4.64
2023-02-11T07:16:23.106Z,-4.64
2023-02-11T07:19:51.285Z,-4.55
2023-02-11T07:23:19.162Z,-4.42
2023-02-11T07:26:47.008Z,-4.23
2023-02-11T07:30:15.134Z,-3.93
2023-02-11T07:33:43.007Z,-3.93
2023-02-11T07:37:11.472Z,-4.03
2023-02-11T07:40:39.367Z,-3.87
2023-02-11T07:44:07.491Z,-3.75
2023-02-11T07:47:16.352Z,-3.59
2023-02-11T07:50:44.691Z,-3.40
2023-02-11T07:54:12.506Z,-3.41
2023-02-11T07:57:40.282Z,-3.26
2023-02-11T08:01:08.123Z,-3.17
2023-02-11T08:03:56.381Z,-3.02
2023-02-11T08:07:24.703Z,-2.80
2023-02-11T08:10:52.907Z,-2.66
2023-02-11T08:14:20.726Z,-2.25
2023-02-11T08:17:29.287Z,-2.00
2023-02-11T08:20:38.545Z,-1.93
2023-02-11T08:24:06.448Z,-2.02
2023-02-11T08:27:34.465Z,-1.87
2023-02-11T08:31:02.288Z,-1.73
2023-02-11T08:34:11.859Z,-1.55
2023-02-11T08:37:20.384Z,-1.56
2023-02-11T08:40:48.213Z,-1.37
2023-02-11T08:44:16.581Z,-1.24
2023-02-11T08:47:44.361Z,-1.14
2023-02-11T08:51:12.424Z,-1.04
2023-02-11T08:54:40.461Z,-0.91
2023-02-11T08:57:49.163Z,-0.80
2023-02-11T09:01:17.529Z,-0.60
2023-02-11T09:04:45.682Z,-0.59
2023-02-11T09:08:13.528Z,-0.38
2023-02-11T09:11:41.341Z,-0.24
2023-02-11T09:15:09.190Z,-0.06
2023-02-11T09:18:36.881Z,-0.05
2023-02-11T09:22:04.819Z,0.13
2023-02-11T09:25:32.648Z,0.22
2023-02-11T09:29:00.681Z,0.35
2023-02-11T09:32:28.490Z,0.56
2023-02-11T09:35:56.208Z,0.68
2023-02-11T09:39:23.982Z,0.90
2023-02-11T09:42:52.088Z,1.00
2023-02-11T09:46:19.871Z,1.23
2023-02-11T09:49:47.565Z,1.35
2023-02-11T09:52:56.687Z,1.45
2023-02-11T09:56:24.584Z,1.54
2023-02-11T09:59:52.496Z,1.46
2023-02-11T10:03:00.471Z,1.67
2023-02-11T10:06:12.333Z,1.63
2023-02-11T10:09:40.112Z,1.90
2023-02-11T10:12:28.268Z,2.11
2023-02-11T10:15:56.155Z,2.17
2023-02-11T10:19:24.165Z,2.32
2023-02-11T10:22:33.147Z,2.52
2023-02-11T10:26:01.200Z,2.49
2023-02-11T10:29:09.679Z,2.61
2023-02-11T10:32:37.574Z,2.78
2023-02-11T10:36:05.593Z,2.91
2023-02-11T10:39:33.722Z,2.92
2023-02-11T10:43:01.395Z,3.16
2023-02-11T10:46:29.510Z,3.48
2023-02-11T10:49:57.611Z,3.49
2023-02-11T10:53:25.673Z,3.52
2023-02-11T10:56:53.522Z,3.66
2023-02-11T11:00:21.318Z,3.59
2023-02-11T11:03:49.451Z,3.78
2023-02-11T11:07:17.369Z,3.89
2023-02-11T11:10:45.229Z,3.93
2023-02-11T11:14:13.012Z,3.97
2023-02-11T11:17:41.258Z,4.04
2023-02-11T11:21:08.945Z,3.85
2023-02-11T11:24:36.962Z,3.63
2023-02-11T11:27:25.957Z,3.47
2023-02-11T11:30:54.523Z,3.67
2023-02-11T11:34:21.939Z,4.03
2023-02-11T11:37:49.854Z,4.30
2023-02-11T11:41:18.039Z,4.42
2023-02-11T11:44:46.922Z,4.47
2023-02-11T11:47:58.702Z,4.58
2023-02-11T11:51:26.868Z,4.93
2023-02-11T11:54:36.795Z,4.98
2023-02-11T11:58:04.691Z,5.27
2023-02-11T12:01:16.313Z,5.60
2023-02-11T12:04:26.689Z,5.69
2023-02-11T12:07:35.772Z,6.09
2023-02-11T12:11:03.574Z,5.92
2023-02-11T12:14:31.259Z,6.12
2023-02-11T12:17:59.436Z,6.43
2023-02-11T12:21:02.879Z,6.47
2023-02-11T12:24:30.812Z,6.30
2023-02-11T12:27:58.548Z,6.74
2023-02-11T12:31:26.440Z,6.80
2023-02-11T12:34:54.488Z,6.70
2023-02-11T12:38:22.594Z,6.39
2023-02-11T12:41:50.670Z,6.29
2023-02-11T12:45:18.457Z,5.93
2023-02-11T12:48:46.672Z,5.90
2023-02-11T12:52:14.764Z,6.15
2023-02-11T12:55:42.600Z,6.00
2023-02-11T12:58:47.868Z,6.18
2023-02-11T13:01:56.474Z,6.03
2023-02-11T13:05:06.487Z,6.06
2023-02-11T13:08:34.440Z,6.26
2023-02-11T13:11:46.105Z,6.33
2023-02-11T13:14:55.705Z,6.38
2023-02-11T13:18:23.472Z,6.55
2023-02-11T13:21:51.682Z,6.68
2023-02-11T13:25:19.557Z,6.70
2023-02-11T13:28:47.348Z,6.96
2023-02-11T13:32:15.668Z,7.23
2023-02-11T13:35:43.592Z,7.18
2023-02-11T13:39:11.400Z,6.93
2023-02-11T13:42:39.477Z,7.08
2023-02-11T13:46:07.651Z,7.57
2023-02-11T13:49:36.256Z,8.02
2023-02-11T13:52:24.500Z,8.22
2023-02-11T13:55:15.496Z,7.99
2023-02-11T13:58:14.480Z,8.28
2023-02-11T14:01:06.203Z,8.24
2023-02-11T14:03:54.881Z,8.31
2023-02-11T14:07:22.723Z,8.11
2023-02-11T14:10:50.950Z,7.98
2023-02-11T14:13:48.726Z,7.42
2023-02-11T14:16:44.580Z,7.24
2023-02-11T14:20:22.984Z,7.04
2023-02-11T14:23:51.974Z,6.84
2023-02-11T14:27:20.225Z,6.68
2023-02-11T14:30:49.266Z,6.63
2023-02-11T14:34:17.259Z,6.24
2023-02-11T14:37:46.247Z,6.14
2023-02-11T14:40:56.973Z,5.99
2023-02-11T14:44:04.913Z,5.86
2023-02-11T14:47:32.846Z,5.71
2023-02-11T14:51:01.046Z,5.53
2023-02-11T14:54:28.763Z,5.45
2023-02-11T14:58:00.435Z,5.31
2023-02-11T15:01:35.543Z,5.09
2023-02-11T15:04:36.942Z,5.03
2023-02-11T15:08:07.354Z,5.07
2023-02-11T15:11:16.861Z,5.11
2023-02-11T15:14:13.791Z,5.12
2023-02-11T15:17:42.192Z,5.15
2023-02-11T15:21:10.089Z,5.08
2023-02-11T15:24:38.208Z,5.02
2023-02-11T15:28:02.470Z,4.94
2023-02-11T15:31:34.559Z,4.84
2023-02-11T15:34:59.293Z,4.78
2023-02-11T15:38:08.312Z,4.73
2023-02-11T15:41:16.907Z,4.61
2023-02-11T15:44:25.153Z,4.43
2023-02-11T15:47:53.325Z,4.41
2023-02-11T15:51:02.174Z,4.36
2023-02-11T15:54:10.997Z,4.27
2023-02-11T15:57:38.839Z,4.18
2023-02-11T16:00:55.191Z,4.09
2023-02-11T16:04:24.514Z,4.02
2023-02-11T16:07:55.345Z,3.93
2023-02-11T16:11:28.841Z,3.84
2023-02-11T16:14:56.650Z,3.82
2023-02-11T16:18:12.748Z,3.75
2023-02-11T16:21:24.534Z,3.69
2023-02-11T16:24:33.714Z,3.62
2023-02-11T16:27:42.661Z,3.54
2023-02-11T16:31:10.999Z,3.46
2023-02-11T16:34:39.002Z,3.34
2023-02-11T16:38:07.489Z,3.24
2023-02-11T16:41:31.721Z,3.16
2023-02-11T16:44:59.427Z,3.12
2023-02-11T16:48:28.039Z,3.01
2023-02-11T16:51:36.294Z,2.91
2023-02-11T16:54:44.234Z,2.88
2023-02-11T16:58:12.261Z,2.82
2023-02-11T17:01:40.266Z,2.80
2023-02-11T17:04:49.102Z,2.77
2023-02-11T17:08:17.217Z,2.74
2023-02-11T17:11:45.513Z,2.69
2023-02-11T17:15:13.712Z,2.64
2023-02-11T17:18:41.743Z,2.59
2023-02-11T17:22:10.245Z,2.46
2023-02-11T17:25:26.755Z,2.34
2023-02-11T17:28:31.337Z,2.27
2023-02-11T17:31:59.740Z,2.18
2023-02-11T17:35:27.743Z,2.11
2023-02-11T17:38:55.597Z,2.07
2023-02-11T17:42:23.493Z,2.02
2023-02-11T17:45:51.501Z,2.00
2023-02-11T17:49:19.259Z,1.99
2023-02-11T17:52:47.419Z,1.97
2023-02-11T17:56:15.339Z,1.94
2023-02-11T17:59:23.769Z,1.92
2023-02-11T18:02:32.980Z,1.90
2023-02-11T18:06:01.365Z,1.91
2023-02-11T18:09:29.207Z,1.93
2023-02-11T18:12:37.776Z,1.95
2023-02-11T18:16:06.016Z,1.97
2023-02-11T18:19:33.812Z,2.01
2023-02-11T18:22:26.785Z,2.04
2023-02-11T18:25:54.904Z,2.07
2023-02-11T18:28:25.600Z,2.06
2023-02-11T18:31:34.383Z,2.07
2023-02-11T18:34:43.510Z,2.08
2023-02-11T18:38:11.830Z,2.09
2023-02-11T18:41:40.109Z,2.15
2023-02-11T18:45:08.013Z,2.20
2023-02-11T18:48:35.876Z,2.28
2023-02-11T18:52:03.864Z,2.31
2023-02-11T18:55:11.703Z,2.33
2023-02-11T18:58:40.212Z,2.35
2023-02-11T19:02:08.381Z,2.37
2023-02-11T19:05:36.705Z,2.40
2023-02-11T19:08:53.376Z,2.45
2023-02-11T19:12:21.100Z,2.38
2023-02-11T19:15:29.063Z,2.40
2023-02-11T19:18:45.010Z,2.35
2023-02-11T19:22:13.049Z,2.27
2023-02-11T19:25:41.205Z,2.28
2023-02-11T19:29:09.384Z,2.27
2023-02-11T19:32:17.230Z,2.25
2023-02-11T19:35:25.920Z,2.25
2023-02-11T19:38:54.052Z,2.27
2023-02-11T19:42:03.174Z,2.22
2023-02-11T19:45:18.769Z,2.23
2023-02-11T19:48:46.656Z,2.23
2023-02-11T19:52:14.499Z,2.21
2023-02-11T19:55:42.513Z,2.17
2023-02-11T19:59:10.691Z,2.14
2023-02-11T20:02:20.976Z,2.16
2023-02-11T20:05:36.682Z,2.18
2023-02-11T20:08:45.701Z,2.17
2023-02-11T20:11:57.809Z,2.16
2023-02-11T20:15:25.725Z,2.23
2023-02-11T20:18:53.726Z,2.16
2023-02-11T20:22:03.551Z,2.14
2023-02-11T20:25:31.350Z,2.15
2023-02-11T20:28:59.402Z,2.20
2023-02-11T20:32:27.458Z,2.17
2023-02-11T20:35:55.498Z,2.16
2023-02-11T20:39:23.289Z,2.13
2023-02-11T20:42:51.424Z,2.15
2023-02-11T20:46:19.231Z,2.14
2023-02-11T20:49:47.492Z,2.12
2023-02-11T20:53:15.957Z,2.08
2023-02-11T20:56:46.773Z,2.05
2023-02-11T21:00:12.516Z,2.08
2023-02-11T21:03:20.492Z,2.07
2023-02-11T21:06:32.218Z,2.14
2023-02-11T21:10:00.549Z,2.20
2023-02-11T21:13:28.530Z,2.24
2023-02-11T21:16:56.920Z,2.19
2023-02-11T21:20:05.803Z,2.15
2023-02-11T21:23:34.131Z,2.15
2023-02-11T21:27:02.349Z,2.10
2023-02-11T21:30:14.089Z,2.10
2023-02-11T21:33:42.090Z,2.06
2023-02-11T21:36:50.913Z,2.12
2023-02-11T21:40:20.443Z,2.16
2023-02-11T21:43:27.736Z,2.17
2023-02-11T21:46:18.071Z,2.16
2023-02-11T21:49:46.244Z,2.12
2023-02-11T21:53:14.750Z,2.06
2023-02-11T21:56:42.644Z,2.11
2023-02-11T21:59:51.881Z,2.16
2023-02-11T22:03:07.814Z,2.07
2023-02-11T22:06:35.970Z,2.14
2023-02-11T22:10:03.807Z,2.19
2023-02-11T22:13:15.646Z,2.21
2023-02-11T22:16:43.511Z,2.20
2023-02-11T22:19:53.157Z,2.13
2023-02-11T22:23:20.960Z,2.11
2023-02-11T22:26:48.820Z,2.11
2023-02-11T22:29:57.531Z,2.13
2023-02-11T22:33:25.758Z,2.18
2023-02-11T22:36:53.756Z,2.17
2023-02-11T22:40:21.912Z,2.14
2023-02-11T22:43:49.963Z,2.01
2023-02-11T22:47:17.961Z,2.05
2023-02-11T22:50:45.710Z,2.03
2023-02-11T22:53:54.304Z,2.02
2023-02-11T22:57:22.169Z,2.06
2023-02-11T23:00:50.212Z,2.04
2023-02-11T23:04:18.258Z,2.08
2023-02-11T23:07:27.926Z,2.03
2023-02-11T23:10:56.385Z,2.01
2023-02-11T23:14:08.219Z,1.99
2023-02-11T23:17:36.399Z,1.98
2023-02-11T23:21:04.474Z,2.02
2023-02-11T23:24:32.277Z,2.05
2023-02-11T23:27:22.057Z,2.05
2023-02-11T23:30:10.363Z,2.08
2023-02-11T23:33:38.183Z,2.00
2023-02-11T23:36:46.992Z,1.99
2023-02-11T23:40:15.139Z,1.96
2023-02-11T23:43:24.454Z,2.01
2023-02-11T23:46:51.396Z,2.01
2023-02-11T23:50:19.151Z,2.00
2023-02-11T23:53:47.301Z,1.97
2023-02-11T23:57:03.091Z,1.91
